Terminal Aerodrome Forecast
Issued by NWS Cleveland, OH

Home | Current Version | Previous Version | Graphics & Text | Print | Product List | Glossary On
Versions: 1 2 3 4 5 6 7 8 9 10 11 12 13 14 15 16 17 18 19 20 21 22 23 24 25 26 27 28 29 30
000
FTUS41 KCLE 170100 AAA
TAFCLE
TAF AMD
KCLE 170124Z 1701/1806 24012KT 6SM -RA OVC008
     FM170400 25012G22KT P6SM OVC008
     FM170900 25012G22KT P6SM OVC015
     FM171700 25015G25KT P6SM OVC025=

USA.gov is the U.S. government's official web portal to all federal, state and local government web resources and services.